Back to Top

Current Local METAR Station Weather Reports...

Local METAR Reports

Local METAR Reports

 

EGCN - Doncaster Sheffield Airport, United Kingdom
Distance from station: E 20mi, 32km
Updated: Wed, 21-Aug-2019 3:50am BST
Clear
Clear
 Wind from SSE
Wind: SSE 6 mph , 9 km/h
Temperature: 13°C
Dew Point: 12°C
Humidity: 94%
Barometer: 1025 hPa
Summary: Clear
Visibility: greater than 7 miles , 10 km
2019/08/21 02:50 EGCN 210250Z 16005KT CAVOK 13/12 Q1025
EGNM - Leeds Bradford International, United Kingdom
Distance from station: NNW 24mi, 39km
Updated: Wed, 21-Aug-2019 3:50am BST
Mostly Cloudy
Mostly Cloudy
 Wind from SW
Wind: SW 5 mph , 7 km/h
Temperature: 13°C
Dew Point: 12°C
Humidity: 94%
Barometer: 1023 hPa
Clouds: Mostly Cloudy
Visibility: 6 miles , 10 km
Cloud details: Mostly Cloudy 274 m
2019/08/21 02:50 EGNM 210250Z 22004KT 180V250 9999 BKN009 13/12 Q1023
 
EGCC - Manchester International, United Kingdom
Distance from station: WSW 35mi, 56km
Updated: Wed, 21-Aug-2019 3:50am BST
Mostly Cloudy
Mostly Cloudy
 Wind from S
Wind: S 6 mph , 9 km/h
Temperature: 13°C
Dew Point: 12°C
Humidity: 94%
Barometer: 1024 hPa
Clouds: Mostly Cloudy
Visibility: 6 miles , 10 km
Cloud details: Mostly Cloudy 762 m
2019/08/21 02:50 EGCC 210250Z AUTO 19005KT 150V220 9999 BKN025 13/12 Q1024 NOSIG
EGXU - Linton-On-Ouse RAF, United Kingdom
Distance from station: NNE 37mi, 60km
Updated: Wed, 21-Aug-2019 3:50am BST
Partly Cloudy
Partly Cloudy
 Wind from S
Wind: S 7 mph , 11 km/h
Temperature: 13°C
Dew Point: 12°C
Humidity: 94%
Barometer: 1023 hPa
Clouds: Partly Cloudy
Visibility: 6 miles , 9 km
Cloud details: Partly Cloudy 488 m
Partly Cloudy 1524 m
2019/08/21 02:50 EGXU 210250Z AUTO 17006KT 9000 // SCT016/// SCT050/// 13/12 Q1023
 
EGXP - Scampton RAF, United Kingdom
Distance from station: ESE 41mi, 66km
Updated: Wed, 21-Aug-2019 2:50am BST
NOT Current
Mostly Cloudy
Mostly Cloudy
 Wind from S
Wind: S 7 mph , 11 km/h
Temperature: 14°C
Dew Point: 12°C
Humidity: 88%
Barometer: 1024 hPa
Clouds: Mostly Cloudy
Visibility: 6 miles , 10 km
Cloud details: Few Clouds 1280 m
Mostly Cloudy 2438 m
2019/08/21 01:50 EGXP 210150Z AUTO 19006KT 9999 // FEW042/// BKN080/// 14/12 Q1024
EGNJ - Humberside Airport, United Kingdom
Distance from station: E 46mi, 74km
Updated: Wed, 21-Aug-2019 3:50am BST
Few Clouds
Few Clouds
 Wind from SSW
Wind: SSW 9 mph , 15 km/h
Temperature: 13°C
Dew Point: 12°C
Humidity: 94%
Barometer: 1024 hPa
Clouds: Few Clouds
Visibility: 6 miles , 10 km
Cloud details: Few Clouds 884 m
2019/08/21 02:50 EGNJ 210250Z AUTO 20008KT 9999 FEW029/// 13/12 Q1024
 
EGXW - Waddington RAF, United Kingdom
Distance from station: ESE 46mi, 74km
Updated: Wed, 21-Aug-2019 3:50am BST
Clear
Clear
 Wind from SW
Wind: SW 10 mph , 17 km/h
Temperature: 14°C
Dew Point: 12°C
Humidity: 88%
Barometer: 1024 hPa
Summary: Clear
Visibility: greater than 7 miles , 10 km
2019/08/21 02:50 EGXW 210250Z 23009KT CAVOK 14/12 Q1024 RMK BLU
EGXZ - Topcliffe RAF, United Kingdom
Distance from station: N 46mi, 75km
Updated: Wed, 21-Aug-2019 2:50am BST
NOT Current
Mist, Mostly cloudy
Mist, Mostly cloudy
 Wind from SE
Wind: SE 7 mph , 11 km/h
Temperature: 11°C
Dew Point: 11°C
Humidity: 100%
Barometer: 1023 hPa
Summary: Mist
Clouds: Mostly Cloudy
Visibility: 6 miles , 9 km
Cloud details: Partly Cloudy 579 m
Mostly Cloudy 1311 m
2019/08/21 01:50 EGXZ 210150Z AUTO 13006KT 9000 BR SCT019/// BKN043/// 11/11 Q1023 RERA
 
EGXV - Leconfield, United Kingdom
Distance from station: ENE 48mi, 77km
Updated: Wed, 21-Aug-2019 3:50am BST
Partly Cloudy
Partly Cloudy
 Wind from SSE
Wind: SSE 2 mph , 4 km/h
Temperature: 12°C
Dew Point: 11°C
Humidity: 94%
Barometer: 1023 hPa
Clouds: Partly Cloudy
Visibility: 6 miles , 10 km
Cloud details: Partly Cloudy 701 m
Partly Cloudy 2134 m
2019/08/21 02:50 EGXV 210250Z AUTO 16002KT 9999 SCT023/// SCT070/// 12/11 Q1023
EGNX - East Midlands, United Kingdom
Distance from station: S 50mi, 80km
Updated: Wed, 21-Aug-2019 3:50am BST
Clear
Clear
 Wind from SW
Wind: SW 15 mph , 24 km/h
Temperature: 13°C
Dew Point: 11°C
Humidity: 88%
Barometer: 1025 hPa
Summary: Clear
Visibility: greater than 7 miles , 10 km
2019/08/21 02:50 EGNX 210250Z 22013KT CAVOK 13/11 Q1025

Metar display script from Saratoga-Weather.org

Data updates at regular intervals.